Time;durP1;ratioP1;P1;durP2;ratioP2;P2;SDS_P1;SDS_P2;PMS_P1;PMS_P2;Temp;Humidity;BMP_temperature;BMP_pressure;BME280_temperature;BME280_humidity;BME280_pressure;Samples;Min_cycle;Max_cycle;Signal;HPM_P1;HPM_P2
2022/07/21 00:01:49;;;;;;;69.40;7.50;;;23.80;90.20;;;;;;5080315;28;20447;-82
2022/07/21 00:04:15;;;;;;;69.27;9.00;;;23.90;88.30;;;;;;5080689;28;20411;-82
2022/07/21 00:06:45;;;;;;;69.03;9.20;;;23.90;90.40;;;;;;5079062;28;20453;-82
2022/07/21 00:09:12;;;;;;;68.07;10.27;;;23.70;92.60;;;;;;5080136;28;20420;-82
2022/07/21 00:11:38;;;;;;;69.30;14.77;;;23.60;92.90;;;;;;5079794;28;20411;-82
2022/07/21 00:14:06;;;;;;;70.30;11.80;;;23.70;93.60;;;;;;5079720;28;20486;-82
2022/07/21 00:16:32;;;;;;;69.73;12.93;;;23.60;94.10;;;;;;5079539;28;20405;-82
2022/07/21 00:18:59;;;;;;;75.60;23.33;;;23.60;94.50;;;;;;5080322;28;20500;-82
2022/07/21 00:21:26;;;;;;;71.03;14.60;;;23.70;94.80;;;;;;5080304;28;20875;-82
2022/07/21 00:23:52;;;;;;;71.77;18.13;;;23.60;95.60;;;;;;5080247;28;20486;-82
2022/07/21 00:26:18;;;;;;;73.47;22.27;;;23.60;95.70;;;;;;5080167;28;20430;-82
2022/07/21 00:28:44;;;;;;;74.37;25.17;;;23.60;96.30;;;;;;5083698;28;20239;-84
2022/07/21 00:31:09;;;;;;;73.03;19.97;;;23.50;97.70;;;;;;5083829;28;20574;-82
2022/07/21 00:33:35;;;;;;;73.47;16.33;;;23.60;96.70;;;;;;5083411;28;20175;-82
2022/07/21 00:36:01;;;;;;;71.47;16.20;;;23.60;96.40;;;;;;5084167;28;20413;-82
2022/07/21 00:38:27;;;;;;;73.60;17.30;;;23.60;96.90;;;;;;5083043;28;20219;-82
2022/07/21 00:40:53;;;;;;;72.93;17.67;;;23.50;96.90;;;;;;5082679;28;20204;-82
2022/07/21 00:43:19;;;;;;;70.43;15.87;;;23.60;97.80;;;;;;5082833;28;20180;-82
2022/07/21 00:45:45;;;;;;;71.70;19.40;;;23.50;99.10;;;;;;5083229;28;20415;-82
2022/07/21 00:48:11;;;;;;;72.77;19.90;;;23.40;99.10;;;;;;5065758;28;20188;-82
2022/07/21 00:50:37;;;;;;;73.10;21.90;;;23.40;99.70;;;;;;5084575;28;20251;-82
2022/07/21 00:53:03;;;;;;;71.00;18.33;;;23.40;99.40;;;;;;5083782;28;20235;-82
2022/07/21 00:55:29;;;;;;;72.80;17.60;;;23.50;99.00;;;;;;5083073;28;20406;-82
2022/07/21 00:57:55;;;;;;;72.07;19.80;;;23.50;98.90;;;;;;5080783;28;20203;-82
2022/07/21 01:00:27;;;;;;;75.00;24.90;;;23.40;99.10;;;;;;5082175;28;20785;-82
2022/07/21 01:02:53;;;;;;;74.07;21.83;;;23.40;99.90;;;;;;5080301;28;20168;-82
2022/07/21 01:05:19;;;;;;;71.77;21.60;;;23.30;99.90;;;;;;5080713;28;20409;-82
2022/07/21 01:07:48;;;;;;;72.70;20.10;;;23.30;99.90;;;;;;5064625;28;20426;-82
2022/07/21 01:10:15;;;;;;;72.60;20.87;;;23.30;99.90;;;;;;5081139;28;20414;-82
2022/07/21 01:12:42;;;;;;;73.87;18.83;;;23.20;99.90;;;;;;5080750;28;20442;-82
2022/07/21 01:15:09;;;;;;;74.97;20.07;;;23.10;99.90;;;;;;5080882;28;20414;-82
2022/07/21 01:17:35;;;;;;;75.83;18.63;;;23.00;99.90;;;;;;5081524;28;20427;-82
2022/07/21 01:20:10;;;;;;;74.80;23.23;;;22.90;99.90;;;;;;5080464;28;20770;-82
2022/07/21 01:22:38;;;;;;;73.70;19.30;;;22.80;99.90;;;;;;5080961;28;20398;-82
2022/07/21 01:25:04;;;;;;;72.70;13.37;;;22.60;99.90;;;;;;5080546;28;20864;-82
2022/07/21 01:27:30;;;;;;;74.00;14.57;;;22.50;99.90;;;;;;5081813;28;20813;-82
2022/07/21 01:29:56;;;;;;;70.97;14.57;;;22.50;99.90;;;;;;5080141;28;20897;-82
2022/07/21 01:32:22;;;;;;;73.17;16.97;;;22.40;99.90;;;;;;5081793;28;20406;-82
2022/07/21 01:34:49;;;;;;;71.80;13.90;;;22.40;99.90;;;;;;5080254;28;20438;-82
2022/07/21 01:37:15;;;;;;;73.13;13.20;;;22.40;99.90;;;;;;5079850;28;20902;-82
2022/07/21 01:42:25;;;;;;;71.90;14.53;;;22.50;99.90;;;;;;5081522;28;20974;-82
2022/07/21 01:44:51;;;;;;;72.03;18.17;;;22.40;99.90;;;;;;5080752;28;20489;-82
2022/07/21 01:47:17;;;;;;;77.23;23.90;;;22.40;99.90;;;;;;5079343;28;20184;-82
2022/07/21 01:49:44;;;;;;;72.43;17.17;;;22.40;99.90;;;;;;5080919;28;20160;-82
2022/07/21 01:52:10;;;;;;;70.20;13.63;;;22.50;99.90;;;;;;5080429;28;20496;-82
2022/07/21 01:54:37;;;;;;;71.77;13.97;;;22.50;99.90;;;;;;5078594;28;20822;-82
2022/07/21 01:57:03;;;;;;;79.77;23.77;;;22.40;99.90;;;;;;5079996;28;20403;-81
2022/07/21 01:59:28;;;;;;;72.77;16.00;;;22.60;99.90;;;;;;5079828;28;20408;-82
2022/07/21 02:01:54;;;;;;;72.83;18.63;;;22.60;99.90;;;;;;5079695;28;20191;-82
2022/07/21 02:04:20;;;;;;;72.20;15.87;;;22.60;99.90;;;;;;5079692;28;20195;-82
2022/07/21 02:06:45;;;;;;;75.30;16.50;;;22.50;99.90;;;;;;5079736;28;20156;-82
2022/07/21 02:09:11;;;;;;;74.70;22.63;;;22.40;99.90;;;;;;5079552;28;20188;-81
2022/07/21 02:11:38;;;;;;;73.07;18.60;;;22.40;99.90;;;;;;5079497;28;20631;-82
2022/07/21 02:14:03;;;;;;;72.87;18.20;;;22.30;99.90;;;;;;5079581;28;20168;-82
2022/07/21 02:16:29;;;;;;;75.20;22.90;;;22.20;99.90;;;;;;5080190;28;20428;-81
2022/07/21 02:18:56;;;;;;;75.97;23.67;;;22.30;99.90;;;;;;5079329;28;20242;-82
2022/07/21 02:21:22;;;;;;;77.97;26.93;;;22.30;99.90;;;;;;5079037;28;20446;-81
2022/07/21 02:23:47;;;;;;;80.67;36.37;;;21.90;99.90;;;;;;5078954;28;20903;-81
2022/07/21 02:26:13;;;;;;;79.67;39.40;;;22.00;99.90;;;;;;5077481;28;20161;-81
2022/07/21 02:28:39;;;;;;;84.73;48.23;;;21.90;99.90;;;;;;5078119;28;20180;-81
2022/07/21 02:31:06;;;;;;;83.77;50.07;;;21.90;99.90;;;;;;5079385;28;20410;-81
2022/07/21 02:33:32;;;;;;;78.03;32.93;;;22.00;99.90;;;;;;5078285;28;20171;-81
2022/07/21 02:35:57;;;;;;;75.37;29.20;;;22.00;99.90;;;;;;5079349;28;20422;-82
2022/07/21 02:38:23;;;;;;;77.07;29.47;;;22.00;99.90;;;;;;5078493;28;20188;-82
2022/07/21 02:40:49;;;;;;;78.70;37.17;;;21.90;99.90;;;;;;5079650;28;20210;-82
2022/07/21 02:43:15;;;;;;;78.67;35.70;;;21.90;99.90;;;;;;5079549;28;20433;-82
2022/07/21 02:45:41;;;;;;;79.60;36.30;;;21.70;99.90;;;;;;5078613;28;20635;-82
2022/07/21 02:48:09;;;;;;;79.53;39.80;;;21.70;99.90;;;;;;5080095;28;20188;-82
2022/07/21 02:50:36;;;;;;;82.30;40.33;;;21.70;99.90;;;;;;5078967;28;20455;-82
2022/07/21 02:53:08;;;;;;;82.07;37.47;;;21.60;99.90;;;;;;5080652;28;20399;-82
2022/07/21 02:55:35;;;;;;;80.00;43.93;;;21.60;99.90;;;;;;5078931;28;20426;-83
2022/07/21 02:58:14;;;;;;;83.60;49.10;;;21.70;99.90;;;;;;5078648;28;20426;-82
2022/07/21 03:00:49;;;;;;;81.33;46.10;;;21.70;99.90;;;;;;5080809;28;20442;-82
2022/07/21 03:03:15;;;;;;;81.03;40.30;;;21.80;99.90;;;;;;5081032;28;20402;-82
2022/07/21 03:05:41;;;;;;;78.37;32.77;;;21.90;99.90;;;;;;5080525;28;20416;-82
2022/07/21 03:08:08;;;;;;;79.20;34.30;;;21.90;99.90;;;;;;5079135;28;20434;-82
2022/07/21 03:10:36;;;;;;;80.07;31.40;;;22.00;99.90;;;;;;5078970;28;20198;-83
2022/07/21 03:13:02;;;;;;;78.70;30.17;;;22.00;99.90;;;;;;5079802;28;20405;-83
2022/07/21 03:15:28;;;;;;;80.80;36.50;;;22.10;99.90;;;;;;5078393;28;20450;-83
2022/07/21 03:17:54;;;;;;;80.60;39.17;;;21.90;99.90;;;;;;5078702;28;20434;-82
2022/07/21 03:20:23;;;;;;;77.80;35.37;;;21.90;99.90;;;;;;5078622;28;20403;-82
2022/07/21 03:22:49;;;;;;;76.90;33.87;;;22.00;99.90;;;;;;5078996;28;20394;-82
2022/07/21 03:25:15;;;;;;;78.97;33.40;;;21.90;99.90;;;;;;5079259;28;20456;-82
2022/07/21 03:27:40;;;;;;;79.83;37.03;;;21.90;99.90;;;;;;5078672;28;20555;-82
2022/07/21 03:30:08;;;;;;;81.30;37.90;;;21.80;99.90;;;;;;5079028;28;20660;-82
2022/07/21 03:32:35;;;;;;;80.13;42.67;;;21.80;99.90;;;;;;5078887;28;20175;-82
2022/07/21 03:35:01;;;;;;;79.53;39.53;;;21.60;99.90;;;;;;5077197;28;20418;-82
2022/07/21 03:37:27;;;;;;;90.80;56.33;;;21.50;99.90;;;;;;5077293;28;20430;-82
2022/07/21 03:39:53;;;;;;;81.97;41.20;;;21.50;99.90;;;;;;5077479;28;20421;-84
2022/07/21 03:42:18;;;;;;;81.80;40.37;;;21.50;99.90;;;;;;5079067;28;20461;-81
2022/07/21 03:44:44;;;;;;;86.37;54.27;;;21.50;99.90;;;;;;5078919;28;20221;-82
2022/07/21 03:47:10;;;;;;;84.50;50.70;;;21.50;99.90;;;;;;5077640;28;20167;-81
2022/07/21 03:49:36;;;;;;;81.90;46.10;;;21.50;99.90;;;;;;5078357;28;20247;-82
2022/07/21 03:52:02;;;;;;;88.20;52.60;;;21.50;99.90;;;;;;5077430;28;20183;-81
2022/07/21 03:54:27;;;;;;;82.03;42.60;;;21.40;99.90;;;;;;5077894;28;20168;-82
2022/07/21 03:56:53;;;;;;;82.00;42.40;;;21.20;99.90;;;;;;5076830;28;20321;-82
2022/07/21 03:59:19;;;;;;;79.73;42.77;;;21.20;99.90;;;;;;5076327;28;20199;-81
2022/07/21 04:01:44;;;;;;;82.37;48.97;;;21.20;99.90;;;;;;5077774;28;20188;-81
2022/07/21 04:04:10;;;;;;;92.90;64.00;;;21.20;99.90;;;;;;5077533;28;20172;-81
2022/07/21 04:06:36;;;;;;;80.70;41.27;;;21.30;99.90;;;;;;5077355;28;20168;-81
2022/07/21 04:09:03;;;;;;;78.43;37.10;;;21.30;99.90;;;;;;5076885;28;20601;-81
2022/07/21 04:11:30;;;;;;;80.13;39.30;;;21.30;99.90;;;;;;5077942;28;20168;-81
2022/07/21 04:13:56;;;;;;;80.13;46.60;;;21.30;99.90;;;;;;5078387;28;20523;-82
2022/07/21 04:16:22;;;;;;;85.17;48.47;;;21.30;99.90;;;;;;5076438;28;20436;-80
2022/07/21 04:18:47;;;;;;;78.77;38.33;;;21.40;99.90;;;;;;5078596;28;20433;-82
2022/07/21 04:21:13;;;;;;;75.13;30.60;;;21.40;99.90;;;;;;5077887;28;20500;-84
2022/07/21 04:23:39;;;;;;;79.50;37.13;;;21.50;99.90;;;;;;5078247;28;20214;-83
2022/07/21 04:26:05;;;;;;;76.90;36.43;;;21.40;99.90;;;;;;5078810;28;20430;-82
2022/07/21 04:28:31;;;;;;;79.60;38.20;;;21.40;99.90;;;;;;5077353;28;20216;-82
2022/07/21 04:30:57;;;;;;;75.57;28.53;;;21.50;99.90;;;;;;5076876;28;20402;-82
2022/07/21 04:33:22;;;;;;;77.67;33.60;;;21.40;99.90;;;;;;5078858;28;20643;-82
2022/07/21 04:35:48;;;;;;;77.43;34.57;;;21.40;99.90;;;;;;5078831;28;20159;-82
2022/07/21 04:38:14;;;;;;;83.30;53.10;;;21.40;99.90;;;;;;5078685;28;20218;-82
2022/07/21 04:40:40;;;;;;;83.93;51.90;;;21.40;99.90;;;;;;5078635;28;20222;-82
2022/07/21 04:43:06;;;;;;;79.07;40.20;;;21.50;99.90;;;;;;5078440;28;20164;-82
2022/07/21 04:45:32;;;;;;;76.43;30.27;;;21.60;99.90;;;;;;5078495;28;20233;-82
2022/07/21 04:47:58;;;;;;;79.13;36.60;;;21.70;99.90;;;;;;5078282;28;20418;-82
2022/07/21 04:50:27;;;;;;;75.77;31.30;;;21.70;99.90;;;;;;5077059;28;20937;-82
2022/07/21 04:52:53;;;;;;;71.27;17.20;;;21.80;99.90;;;;;;5076658;28;20432;-82
2022/07/21 04:55:20;;;;;;;73.73;22.13;;;21.80;99.90;;;;;;5078430;28;20480;-82
2022/07/21 04:57:48;;;;;;;73.20;24.27;;;21.70;99.90;;;;;;5078246;28;20493;-82
2022/07/21 05:00:17;;;;;;;72.13;20.63;;;21.70;99.90;;;;;;5079154;28;20451;-82
2022/07/21 05:02:44;;;;;;;71.73;23.43;;;21.60;99.90;;;;;;5079802;28;20418;-82
2022/07/21 05:05:10;;;;;;;76.27;29.90;;;21.70;99.90;;;;;;5081070;28;20406;-82
2022/07/21 05:07:36;;;;;;;82.83;49.20;;;21.40;99.90;;;;;;5082540;28;20517;-82
2022/07/21 05:10:07;;;;;;;75.93;29.83;;;21.50;99.90;;;;;;5082458;28;20418;-82
2022/07/21 05:12:33;;;;;;;74.43;30.27;;;21.40;99.90;;;;;;5081510;28;20422;-82
2022/07/21 05:14:59;;;;;;;74.50;29.70;;;21.40;99.90;;;;;;5083323;28;20474;-83
2022/07/21 05:17:24;;;;;;;74.33;28.17;;;21.40;99.90;;;;;;5083817;28;20529;-83
2022/07/21 05:19:50;;;;;;;68.90;15.50;;;21.50;99.90;;;;;;5084165;28;20167;-83
2022/07/21 05:22:19;;;;;;;72.83;25.67;;;21.30;99.90;;;;;;5084020;28;20638;-83
2022/07/21 05:24:45;;;;;;;73.17;21.83;;;21.10;99.90;;;;;;5083185;28;20168;-82
2022/07/21 05:27:11;;;;;;;72.97;25.87;;;21.00;99.90;;;;;;5080242;28;20442;-82
2022/07/21 05:29:36;;;;;;;77.90;32.07;;;20.90;99.90;;;;;;5081488;28;20916;-82
2022/07/21 05:32:02;;;;;;;93.67;69.93;;;20.80;99.90;;;;;;5079621;28;20437;-82
2022/07/21 05:34:28;;;;;;;81.60;50.33;;;20.90;99.90;;;;;;5082423;28;20195;-82
2022/07/21 05:36:54;;;;;;;76.50;33.60;;;20.90;99.90;;;;;;5081667;28;20262;-82
2022/07/21 05:39:20;;;;;;;93.80;72.37;;;21.00;99.90;;;;;;5082290;28;20458;-82
2022/07/21 05:41:46;;;;;;;77.80;30.67;;;21.10;99.90;;;;;;5081591;28;20241;-82
2022/07/21 05:44:12;;;;;;;76.03;25.60;;;21.20;99.90;;;;;;5081745;28;20527;-82
2022/07/21 05:46:38;;;;;;;72.97;20.60;;;21.20;99.90;;;;;;5082050;28;20461;-83
2022/07/21 05:49:03;;;;;;;75.63;27.07;;;21.20;99.90;;;;;;5081744;28;20184;-82
2022/07/21 05:51:29;;;;;;;73.00;21.17;;;21.10;99.90;;;;;;5081167;28;20174;-82
2022/07/21 05:53:55;;;;;;;82.50;39.03;;;20.90;99.90;;;;;;5079527;28;20168;-83
2022/07/21 05:56:20;;;;;;;78.57;41.13;;;20.80;99.90;;;;;;5080658;28;20509;-82
2022/07/21 05:58:46;;;;;;;80.30;45.00;;;20.80;99.90;;;;;;5079596;28;20192;-82
2022/07/21 06:01:12;;;;;;;74.83;30.00;;;20.70;99.90;;;;;;5080570;28;20805;-82
2022/07/21 06:03:47;;;;;;;82.23;47.03;;;20.60;99.90;;;;;;5080540;28;20425;-83
2022/07/21 06:06:16;;;;;;;75.07;29.03;;;20.60;99.90;;;;;;5080603;28;20379;-82
2022/07/21 06:08:43;;;;;;;75.50;29.77;;;20.60;99.90;;;;;;5062986;28;20462;-82
2022/07/21 06:11:10;;;;;;;79.87;43.93;;;20.50;99.90;;;;;;5080239;28;20405;-82
2022/07/21 06:13:37;;;;;;;70.73;22.93;;;20.60;99.90;;;;;;5078976;28;20406;-82
2022/07/21 06:16:03;;;;;;;66.47;14.10;;;20.80;99.90;;;;;;5080719;28;20398;-82
2022/07/21 06:18:29;;;;;;;63.13;6.13;;;21.00;99.90;;;;;;5079818;28;20989;-81
2022/07/21 06:20:55;;;;;;;65.43;12.50;;;21.10;99.90;;;;;;5078156;28;20446;-81
2022/07/21 06:23:21;;;;;;;65.03;8.10;;;20.90;99.90;;;;;;5079135;28;20168;-81
2022/07/21 06:25:46;;;;;;;67.00;15.70;;;21.00;99.90;;;;;;5078457;28;20171;-82
2022/07/21 06:28:12;;;;;;;67.03;13.87;;;21.00;99.90;;;;;;5078737;28;20940;-84
2022/07/21 06:30:38;;;;;;;66.00;10.77;;;20.90;99.90;;;;;;5079649;28;20172;-82
2022/07/21 06:33:04;;;;;;;65.67;10.00;;;20.80;99.90;;;;;;5078172;28;20164;-81
2022/07/21 06:35:29;;;;;;;64.67;8.83;;;20.90;99.90;;;;;;5079150;28;20231;-81
2022/07/21 06:37:55;;;;;;;65.47;10.03;;;21.00;99.90;;;;;;5079274;28;20437;-81
2022/07/21 06:40:21;;;;;;;65.37;12.97;;;21.00;99.90;;;;;;5079685;28;20219;-81
2022/07/21 06:42:47;;;;;;;67.67;9.87;;;21.10;99.90;;;;;;5079260;28;20183;-81
2022/07/21 06:45:13;;;;;;;69.60;13.17;;;21.00;99.90;;;;;;5079026;28;20460;-81
2022/07/21 06:47:40;;;;;;;67.37;9.87;;;21.20;99.90;;;;;;5078831;28;20426;-82
2022/07/21 06:50:07;;;;;;;66.03;11.60;;;21.20;99.90;;;;;;5080635;28;20730;-82
2022/07/21 06:52:34;;;;;;;66.30;11.00;;;21.10;99.90;;;;;;5079267;28;20445;-82
2022/07/21 06:54:59;;;;;;;66.03;9.37;;;21.10;99.90;;;;;;5079779;28;20400;-82
2022/07/21 06:57:25;;;;;;;66.20;10.83;;;21.20;99.90;;;;;;5078713;28;20509;-81
2022/07/21 06:59:51;;;;;;;67.40;12.47;;;21.20;99.90;;;;;;5077543;28;20402;-82
2022/07/21 07:02:17;;;;;;;68.87;10.07;;;21.30;99.90;;;;;;5077338;28;20179;-82
2022/07/21 07:04:45;;;;;;;64.60;9.50;;;21.30;99.90;;;;;;5078301;28;20172;-82
2022/07/21 07:07:11;;;;;;;65.73;11.17;;;21.30;99.90;;;;;;5079153;28;20237;-83
2022/07/21 07:09:36;;;;;;;66.17;8.90;;;21.30;99.90;;;;;;5079153;28;20410;-82
2022/07/21 07:12:03;;;;;;;65.77;7.57;;;21.30;99.90;;;;;;5078152;28;20187;-82
2022/07/21 07:14:34;;;;;;;68.17;8.50;;;21.40;99.90;;;;;;5079552;28;20152;-82
2022/07/21 07:17:00;;;;;;;64.47;7.23;;;21.40;99.90;;;;;;5078729;28;20410;-82
2022/07/21 07:19:27;;;;;;;63.90;5.90;;;21.40;99.90;;;;;;5079386;28;20427;-82
2022/07/21 07:21:53;;;;;;;64.70;6.57;;;21.50;99.90;;;;;;5077860;28;20808;-82
2022/07/21 07:24:19;;;;;;;64.60;5.07;;;21.50;99.90;;;;;;5079216;28;20455;-82
2022/07/21 07:26:45;;;;;;;65.37;7.80;;;21.70;99.90;;;;;;5078532;28;20755;-82
2022/07/21 07:29:11;;;;;;;64.20;7.03;;;21.60;99.90;;;;;;5079129;28;20271;-82
2022/07/21 07:31:40;;;;;;;64.10;7.07;;;21.80;99.90;;;;;;5078956;28;20187;-82
2022/07/21 07:34:06;;;;;;;64.70;8.60;;;22.00;99.90;;;;;;5078637;28;20403;-82
2022/07/21 07:36:32;;;;;;;68.80;11.60;;;22.00;99.90;;;;;;5078714;28;20432;-82
2022/07/21 07:38:59;;;;;;;64.50;6.93;;;22.10;99.90;;;;;;5078216;28;20426;-82
2022/07/21 07:41:26;;;;;;;64.80;6.13;;;22.10;99.90;;;;;;5078563;28;20909;-82
2022/07/21 07:43:52;;;;;;;65.23;7.00;;;22.10;99.90;;;;;;5078455;28;20750;-82
2022/07/21 07:46:19;;;;;;;64.47;6.60;;;22.00;99.90;;;;;;5079505;28;20402;-82
2022/07/21 07:48:45;;;;;;;67.27;7.60;;;22.00;99.90;;;;;;5077301;28;20462;-82
2022/07/21 07:51:12;;;;;;;65.37;8.90;;;22.10;99.90;;;;;;5078785;28;20438;-82
2022/07/21 07:53:38;;;;;;;66.37;7.60;;;22.10;99.90;;;;;;5077301;28;20426;-82
2022/07/21 07:56:04;;;;;;;64.50;6.07;;;22.30;99.90;;;;;;5080941;28;20394;-82
2022/07/21 07:58:30;;;;;;;66.07;7.00;;;22.30;99.90;;;;;;5080854;28;20433;-82
2022/07/21 08:00:56;;;;;;;66.60;8.30;;;22.40;99.90;;;;;;5081573;28;20409;-82
2022/07/21 08:03:23;;;;;;;64.90;6.53;;;22.40;99.90;;;;;;5079548;28;20406;-81
2022/07/21 08:05:49;;;;;;;65.50;7.70;;;22.50;99.90;;;;;;5080764;28;20164;-82
2022/07/21 08:08:15;;;;;;;64.77;7.40;;;22.50;99.90;;;;;;5078592;28;20500;-82
2022/07/21 08:10:40;;;;;;;66.70;6.80;;;22.60;99.90;;;;;;5077223;28;20451;-82
2022/07/21 08:13:08;;;;;;;66.97;7.63;;;22.70;99.90;;;;;;5077399;28;20505;-81
2022/07/21 08:15:34;;;;;;;65.20;8.43;;;22.70;99.90;;;;;;5077704;28;20167;-81
2022/07/21 08:18:02;;;;;;;65.33;7.57;;;22.70;99.90;;;;;;5077642;28;20430;-81
2022/07/21 08:20:31;;;;;;;68.37;12.07;;;22.70;99.90;;;;;;5076486;28;20414;-83
2022/07/21 08:22:57;;;;;;;74.90;32.07;;;22.80;99.90;;;;;;5077910;28;20485;-82
2022/07/21 08:25:23;;;;;;;75.13;32.23;;;23.10;99.90;;;;;;5078101;28;20924;-82
2022/07/21 08:27:48;;;;;;;76.33;36.40;;;23.20;99.90;;;;;;5077636;28;20176;-82
2022/07/21 08:30:14;;;;;;;74.00;26.30;;;23.30;99.90;;;;;;5078417;28;20195;-82
2022/07/21 08:32:40;;;;;;;70.10;14.17;;;23.50;99.90;;;;;;5078642;28;20241;-82
2022/07/21 08:35:08;;;;;;;68.27;12.37;;;23.70;99.90;;;;;;5078919;28;20160;-82
2022/07/21 08:37:35;;;;;;;69.13;9.77;;;23.60;99.90;;;;;;5078406;28;20212;-82
2022/07/21 08:40:06;;;;;;;67.07;6.27;;;23.50;99.90;;;;;;5078729;28;20395;-82
2022/07/21 08:42:31;;;;;;;67.80;5.60;;;23.60;99.90;;;;;;5092510;22;20494;-82
2022/07/21 08:44:57;;;;;;;66.90;6.70;;;23.70;99.90;;;;;;5078109;28;20406;-82
2022/07/21 08:47:25;;;;;;;68.57;6.27;;;23.80;99.90;;;;;;5078515;28;20188;-83
2022/07/21 08:49:51;;;;;;;70.90;9.10;;;24.00;99.90;;;;;;5082647;28;20164;-83
2022/07/21 08:52:18;;;;;;;68.40;10.53;;;24.10;96.30;;;;;;5081517;28;20437;-82
2022/07/21 08:54:46;;;;;;;69.57;15.03;;;24.20;98.40;;;;;;5083353;28;20402;-83
2022/07/21 08:57:12;;;;;;;70.07;15.00;;;24.20;94.20;;;;;;5083109;28;20401;-83
2022/07/21 08:59:38;;;;;;;73.30;12.67;;;24.10;95.50;;;;;;5082630;28;20397;-83
2022/07/21 09:02:04;;;;;;;68.87;13.77;;;24.20;97.50;;;;;;5082944;28;20188;-83
2022/07/21 09:04:34;;;;;;;69.97;11.20;;;24.00;91.30;;;;;;5082846;28;20765;-83
2022/07/21 09:07:03;;;;;;;70.80;13.57;;;23.90;89.80;;;;;;5081159;28;20172;-82
2022/07/21 09:09:32;;;;;;;70.13;14.50;;;23.90;92.10;;;;;;5082940;28;20412;-83
2022/07/21 09:11:59;;;;;;;70.37;14.80;;;23.80;91.70;;;;;;5083275;28;20441;-83
2022/07/21 09:14:28;;;;;;;70.20;14.53;;;24.00;94.10;;;;;;5082101;28;20399;-83
2022/07/21 09:16:57;;;;;;;72.77;15.33;;;24.00;93.00;;;;;;5082247;28;20485;-82
2022/07/21 09:19:22;;;;;;;69.57;13.73;;;23.90;90.00;;;;;;5082806;28;20399;-83
2022/07/21 09:21:53;;;;;;;71.07;9.60;;;24.00;93.70;;;;;;5082482;28;20398;-83
2022/07/21 09:24:34;;;;;;;68.30;7.50;;;24.10;71.10;;;;;;5081027;28;20173;-83
2022/07/21 09:27:03;;;;;;;69.47;7.67;;;24.10;65.10;;;;;;5082775;28;20386;-82
2022/07/21 09:29:43;;;;;;;69.97;7.20;;;23.90;67.50;;;;;;5082976;28;20913;-83
2022/07/21 09:32:17;;;;;;;68.43;6.80;;;24.00;56.90;;;;;;5080612;28;20812;-83
2022/07/21 09:34:44;;;;;;;67.07;6.23;;;24.00;60.70;;;;;;5082597;28;20386;-83
2022/07/21 09:37:10;;;;;;;71.17;6.97;;;24.10;53.50;;;;;;5082075;28;20394;-83
2022/07/21 09:39:53;;;;;;;71.40;7.63;;;24.10;64.90;;;;;;5083000;28;20425;-82
2022/07/21 09:42:21;;;;;;;68.13;7.77;;;24.30;66.30;;;;;;5081496;28;20602;-83
2022/07/21 09:45:01;;;;;;;67.90;6.53;;;24.20;67.80;;;;;;5082363;28;20406;-82
2022/07/21 09:47:29;;;;;;;67.20;6.43;;;24.30;71.10;;;;;;5082418;28;20421;-82
2022/07/21 09:49:57;;;;;;;68.30;6.27;;;24.50;67.10;;;;;;5083150;28;20840;-83
2022/07/21 09:52:29;;;;;;;68.27;6.47;;;24.60;48.90;;;;;;5083688;28;20434;-83
2022/07/21 09:54:57;;;;;;;68.80;7.87;;;24.60;51.80;;;;;;5081368;28;20421;-83
2022/07/21 09:57:23;;;;;;;68.87;6.80;;;24.40;48.50;;;;;;5081633;28;20422;-83
2022/07/21 09:59:50;;;;;;;68.60;8.83;;;24.60;50.40;;;;;;5081274;28;20742;-83
2022/07/21 10:02:22;;;;;;;69.27;12.00;;;24.70;43.00;;;;;;5082037;28;20410;-83
2022/07/21 10:05:11;;;;;;;68.90;12.40;;;24.70;36.90;;;;;;5081947;28;20389;-82
2022/07/21 10:07:40;;;;;;;68.37;10.10;;;24.80;34.40;;;;;;5081676;28;20425;-82
2022/07/21 10:10:06;;;;;;;69.30;12.57;;;24.70;41.70;;;;;;5080631;28;20416;-82
2022/07/21 10:12:32;;;;;;;70.60;13.00;;;24.70;33.60;;;;;;5079643;28;20451;-83
2022/07/21 10:15:01;;;;;;;69.70;12.00;;;24.60;29.90;;;;;;5080906;28;20400;-83
2022/07/21 10:17:27;;;;;;;69.17;9.63;;;24.70;30.50;;;;;;5079751;28;20454;-83
2022/07/21 10:20:14;;;;;;;70.97;10.60;;;24.90;25.00;;;;;;5082236;28;20390;-83
2022/07/21 10:22:43;;;;;;;69.57;10.30;;;25.00;32.70;;;;;;5079471;28;20171;-82
2022/07/21 10:25:09;;;;;;;69.67;10.43;;;25.20;33.20;;;;;;5079721;28;20406;-82
2022/07/21 10:27:35;;;;;;;70.37;13.17;;;25.30;30.30;;;;;;5081053;28;20950;-82
2022/07/21 10:30:04;;;;;;;69.70;7.57;;;24.90;30.00;;;;;;5080983;28;20462;-82
2022/07/21 10:32:47;;;;;;;67.67;5.60;;;24.80;23.80;;;;;;5081442;28;20190;-83
2022/07/21 10:35:30;;;;;;;68.50;8.47;;;24.50;22.40;;;;;;5080940;28;20392;-82
2022/07/21 10:38:03;;;;;;;69.90;10.50;;;24.30;28.60;;;;;;5079328;28;20478;-82
2022/07/21 10:40:29;;;;;;;71.43;10.50;;;24.00;37.80;;;;;;5080228;28;20415;-82
2022/07/21 10:43:01;;;;;;;71.50;11.50;;;24.10;40.20;;;;;;5079129;28;20835;-82
2022/07/21 10:45:43;;;;;;;69.30;8.93;;;24.10;38.80;;;;;;5079923;28;20225;-82
2022/07/21 10:48:38;;;;;;;71.20;12.27;;;24.00;34.10;;;;;;5080762;28;20953;-83
2022/07/21 10:51:08;;;;;;;68.30;10.07;;;23.90;41.80;;;;;;5079168;28;20449;-82
2022/07/21 10:53:34;;;;;;;70.80;10.10;;;23.90;48.10;;;;;;5079205;28;20502;-82
2022/07/21 10:56:00;;;;;;;68.60;7.47;;;23.70;60.50;;;;;;5079753;28;20901;-82
2022/07/21 10:58:40;;;;;;;68.57;9.37;;;23.70;65.60;;;;;;5080577;28;20176;-82
2022/07/21 11:01:20;;;;;;;69.50;7.60;;;23.80;78.90;;;;;;5078893;28;20957;-83
2022/07/21 11:03:46;;;;;;;69.60;8.10;;;23.80;69.10;;;;;;5080188;28;20402;-82
2022/07/21 11:06:23;;;;;;;68.37;9.37;;;23.90;77.90;;;;;;5078639;28;20410;-82
2022/07/21 11:08:52;;;;;;;69.30;9.27;;;23.80;83.00;;;;;;5080129;28;20184;-82
2022/07/21 11:11:26;;;;;;;69.03;10.40;;;23.80;83.90;;;;;;5079091;28;20435;-83
2022/07/21 11:14:20;;;;;;;70.10;14.20;;;23.80;85.30;;;;;;5080153;28;20383;-82
2022/07/21 11:17:01;;;;;;;72.03;13.53;;;23.80;87.60;;;;;;5079011;28;20395;-82
2022/07/21 11:19:46;;;;;;;70.50;13.63;;;23.80;91.80;;;;;;5079878;28;20418;-83
2022/07/21 11:22:17;;;;;;;71.33;15.90;;;23.80;95.90;;;;;;5081049;28;20425;-83
2022/07/21 11:24:49;;;;;;;69.87;12.87;;;23.80;97.10;;;;;;5080050;28;20406;-83
2022/07/21 11:27:20;;;;;;;71.57;14.37;;;23.60;99.80;;;;;;5078416;28;20395;-83
2022/07/21 11:29:47;;;;;;;72.47;12.83;;;23.40;99.90;;;;;;5080830;28;20406;-83
2022/07/21 11:32:15;;;;;;;71.23;9.80;;;23.10;99.90;;;;;;5080675;28;20438;-83
2022/07/21 11:34:43;;;;;;;71.17;8.30;;;22.80;99.90;;;;;;5080744;28;20424;-83
2022/07/21 11:37:10;;;;;;;68.97;9.37;;;22.60;99.90;;;;;;5082147;28;20444;-83
2022/07/21 11:39:36;;;;;;;77.30;29.77;;;22.20;99.90;;;;;;5083810;28;20556;-84
2022/07/21 11:42:07;;;;;;;94.57;63.10;;;22.10;99.90;;;;;;5079626;28;20438;-82
2022/07/21 11:44:34;;;;;;;91.37;64.07;;;21.90;99.90;;;;;;5078054;28;20414;-82
2022/07/21 11:47:01;;;;;;;85.10;56.17;;;21.90;99.90;;;;;;5079164;28;20408;-83
2022/07/21 11:49:27;;;;;;;80.40;42.53;;;21.90;99.90;;;;;;5078360;28;20437;-82
2022/07/21 11:51:59;;;;;;;76.97;31.63;;;21.90;99.90;;;;;;5081177;28;20434;-83
2022/07/21 11:54:26;;;;;;;75.03;28.03;;;21.90;99.90;;;;;;5083059;28;20401;-84
2022/07/21 11:56:54;;;;;;;74.87;23.93;;;21.90;99.90;;;;;;5082229;28;20403;-84
2022/07/21 11:59:21;;;;;;;73.57;21.20;;;22.00;99.90;;;;;;5080878;28;20568;-84
2022/07/21 12:01:58;;;;;;;74.37;19.47;;;22.00;99.90;;;;;;5079801;28;20417;-84
2022/07/21 12:04:46;;;;;;;76.20;19.27;;;22.00;99.90;;;;;;5082474;28;20390;-84
2022/07/21 12:07:14;;;;;;;71.47;17.87;;;22.00;99.90;;;;;;5082988;28;20386;-84
2022/07/21 12:09:41;;;;;;;70.47;14.30;;;22.00;99.90;;;;;;5080051;28;20468;-84
2022/07/21 12:12:10;;;;;;;73.40;18.17;;;22.10;99.90;;;;;;5079742;28;20442;-84
2022/07/21 12:14:40;;;;;;;69.40;13.40;;;22.00;99.90;;;;;;5080815;28;20437;-84
2022/07/21 12:17:05;;;;;;;68.60;14.07;;;22.00;99.90;;;;;;5078527;28;20759;-84
2022/07/21 12:19:31;;;;;;;73.80;16.30;;;22.10;99.90;;;;;;5082299;28;20440;-84
2022/07/21 12:21:59;;;;;;;69.80;11.67;;;22.10;99.90;;;;;;5082146;28;20175;-84
2022/07/21 12:24:52;;;;;;;70.17;13.07;;;22.20;99.90;;;;;;5083710;28;20168;-84
2022/07/21 12:27:18;;;;;;;71.47;13.77;;;22.10;99.90;;;;;;5082089;28;20418;-84
2022/07/21 12:29:44;;;;;;;70.03;13.07;;;22.10;99.90;;;;;;5084849;28;20409;-84
2022/07/21 12:32:10;;;;;;;73.67;14.50;;;22.10;99.90;;;;;;5089240;28;20820;-84
2022/07/21 12:34:52;;;;;;;72.57;11.50;;;22.10;99.90;;;;;;5088121;28;20397;-84